sensor_id;sensor_type;location;lat;lon;timestamp;P1;durP1;ratioP1;P2;durP2;ratioP2
15012;SDS011;7603;49.432;11.418;2023-07-16T00:01:59;6.65;;;6.05;;
15012;SDS011;7603;49.432;11.418;2023-07-16T00:04:25;5.65;;;5.28;;
15012;SDS011;7603;49.432;11.418;2023-07-16T00:06:50;6.35;;;5.95;;
15012;SDS011;7603;49.432;11.418;2023-07-16T00:09:16;5.85;;;5.35;;
15012;SDS011;7603;49.432;11.418;2023-07-16T00:11:41;5.47;;;4.97;;
15012;SDS011;7603;49.432;11.418;2023-07-16T00:14:07;6.55;;;6.10;;
15012;SDS011;7603;49.432;11.418;2023-07-16T00:16:34;6.53;;;5.95;;
15012;SDS011;7603;49.432;11.418;2023-07-16T00:19:00;6.78;;;6.15;;
15012;SDS011;7603;49.432;11.418;2023-07-16T00:21:25;5.68;;;5.30;;
15012;SDS011;7603;49.432;11.418;2023-07-16T00:23:51;6.63;;;5.70;;
15012;SDS011;7603;49.432;11.418;2023-07-16T00:26:16;6.78;;;6.28;;
15012;SDS011;7603;49.432;11.418;2023-07-16T00:28:42;7.22;;;6.65;;
15012;SDS011;7603;49.432;11.418;2023-07-16T00:31:08;6.05;;;5.65;;
15012;SDS011;7603;49.432;11.418;2023-07-16T00:33:34;7.97;;;7.38;;
15012;SDS011;7603;49.432;11.418;2023-07-16T00:36:01;8.00;;;6.97;;
15012;SDS011;7603;49.432;11.418;2023-07-16T00:38:26;8.63;;;7.95;;
15012;SDS011;7603;49.432;11.418;2023-07-16T00:40:52;9.10;;;8.40;;
15012;SDS011;7603;49.432;11.418;2023-07-16T00:43:17;6.80;;;6.20;;
15012;SDS011;7603;49.432;11.418;2023-07-16T00:45:45;9.15;;;8.23;;
15012;SDS011;7603;49.432;11.418;2023-07-16T00:48:11;6.45;;;6.05;;
15012;SDS011;7603;49.432;11.418;2023-07-16T00:50:37;7.82;;;7.22;;
15012;SDS011;7603;49.432;11.418;2023-07-16T00:53:05;7.28;;;6.53;;
15012;SDS011;7603;49.432;11.418;2023-07-16T00:55:31;7.07;;;6.47;;
15012;SDS011;7603;49.432;11.418;2023-07-16T00:58:00;8.07;;;7.47;;
15012;SDS011;7603;49.432;11.418;2023-07-16T01:00:33;7.13;;;6.50;;
15012;SDS011;7603;49.432;11.418;2023-07-16T01:03:01;7.85;;;7.25;;
15012;SDS011;7603;49.432;11.418;2023-07-16T01:05:29;6.65;;;5.30;;
15012;SDS011;7603;49.432;11.418;2023-07-16T01:08:02;6.38;;;5.90;;
15012;SDS011;7603;49.432;11.418;2023-07-16T01:10:30;6.47;;;5.88;;
15012;SDS011;7603;49.432;11.418;2023-07-16T01:12:56;6.05;;;5.65;;
15012;SDS011;7603;49.432;11.418;2023-07-16T01:15:23;6.40;;;6.00;;
15012;SDS011;7603;49.432;11.418;2023-07-16T01:17:49;6.13;;;5.60;;
15012;SDS011;7603;49.432;11.418;2023-07-16T01:20:15;6.43;;;5.90;;
15012;SDS011;7603;49.432;11.418;2023-07-16T01:31:17;6.22;;;5.63;;
15012;SDS011;7603;49.432;11.418;2023-07-16T01:33:43;5.63;;;5.22;;
15012;SDS011;7603;49.432;11.418;2023-07-16T01:36:10;5.50;;;5.10;;
15012;SDS011;7603;49.432;11.418;2023-07-16T01:38:36;5.40;;;4.95;;
15012;SDS011;7603;49.432;11.418;2023-07-16T01:41:02;4.90;;;4.60;;
15012;SDS011;7603;49.432;11.418;2023-07-16T01:43:28;5.93;;;5.50;;
15012;SDS011;7603;49.432;11.418;2023-07-16T01:45:53;4.72;;;4.40;;
15012;SDS011;7603;49.432;11.418;2023-07-16T01:48:24;5.38;;;4.88;;
15012;SDS011;7603;49.432;11.418;2023-07-16T01:51:00;4.97;;;4.68;;
15012;SDS011;7603;49.432;11.418;2023-07-16T01:53:26;5.25;;;4.82;;
15012;SDS011;7603;49.432;11.418;2023-07-16T01:55:52;5.85;;;5.40;;
15012;SDS011;7603;49.432;11.418;2023-07-16T01:58:17;5.03;;;4.70;;
15012;SDS011;7603;49.432;11.418;2023-07-16T02:00:43;4.97;;;4.68;;
15012;SDS011;7603;49.432;11.418;2023-07-16T02:03:09;4.38;;;4.10;;
15012;SDS011;7603;49.432;11.418;2023-07-16T02:05:34;4.32;;;4.03;;
15012;SDS011;7603;49.432;11.418;2023-07-16T02:08:00;4.15;;;3.85;;
15012;SDS011;7603;49.432;11.418;2023-07-16T02:10:26;5.22;;;4.82;;
15012;SDS011;7603;49.432;11.418;2023-07-16T02:12:51;4.18;;;3.75;;
15012;SDS011;7603;49.432;11.418;2023-07-16T02:15:17;4.60;;;4.20;;
15012;SDS011;7603;49.432;11.418;2023-07-16T02:17:44;3.63;;;3.42;;
15012;SDS011;7603;49.432;11.418;2023-07-16T02:20:10;3.67;;;3.45;;
15012;SDS011;7603;49.432;11.418;2023-07-16T02:22:36;4.60;;;4.30;;
15012;SDS011;7603;49.432;11.418;2023-07-16T02:25:02;4.22;;;3.78;;
15012;SDS011;7603;49.432;11.418;2023-07-16T02:27:28;4.20;;;3.80;;
15012;SDS011;7603;49.432;11.418;2023-07-16T02:29:54;4.97;;;4.22;;
15012;SDS011;7603;49.432;11.418;2023-07-16T02:32:19;3.17;;;2.88;;
15012;SDS011;7603;49.432;11.418;2023-07-16T02:34:45;4.30;;;4.00;;
15012;SDS011;7603;49.432;11.418;2023-07-16T02:37:10;3.42;;;3.22;;
15012;SDS011;7603;49.432;11.418;2023-07-16T02:39:37;3.22;;;3.03;;
15012;SDS011;7603;49.432;11.418;2023-07-16T02:42:04;3.53;;;3.33;;
15012;SDS011;7603;49.432;11.418;2023-07-16T02:44:30;3.88;;;3.58;;
15012;SDS011;7603;49.432;11.418;2023-07-16T02:46:55;3.70;;;3.00;;
15012;SDS011;7603;49.432;11.418;2023-07-16T02:49:21;3.70;;;3.05;;
15012;SDS011;7603;49.432;11.418;2023-07-16T02:51:47;3.95;;;3.65;;
15012;SDS011;7603;49.432;11.418;2023-07-16T02:54:12;3.60;;;3.40;;
15012;SDS011;7603;49.432;11.418;2023-07-16T02:56:38;3.10;;;2.90;;
15012;SDS011;7603;49.432;11.418;2023-07-16T02:59:04;3.83;;;3.45;;
15012;SDS011;7603;49.432;11.418;2023-07-16T03:01:29;3.38;;;3.08;;
15012;SDS011;7603;49.432;11.418;2023-07-16T03:03:55;4.40;;;3.13;;
15012;SDS011;7603;49.432;11.418;2023-07-16T03:06:21;3.40;;;3.20;;
15012;SDS011;7603;49.432;11.418;2023-07-16T03:08:46;3.83;;;3.53;;
15012;SDS011;7603;49.432;11.418;2023-07-16T03:11:12;3.60;;;3.15;;
15012;SDS011;7603;49.432;11.418;2023-07-16T03:13:37;3.60;;;3.30;;
15012;SDS011;7603;49.432;11.418;2023-07-16T03:16:03;3.17;;;2.97;;
15012;SDS011;7603;49.432;11.418;2023-07-16T03:18:29;3.47;;;3.13;;
15012;SDS011;7603;49.432;11.418;2023-07-16T03:20:58;3.72;;;3.00;;
15012;SDS011;7603;49.432;11.418;2023-07-16T03:23:24;3.20;;;2.88;;
15012;SDS011;7603;49.432;11.418;2023-07-16T03:25:51;3.28;;;3.08;;
15012;SDS011;7603;49.432;11.418;2023-07-16T03:28:17;3.33;;;3.13;;
15012;SDS011;7603;49.432;11.418;2023-07-16T03:30:49;4.43;;;3.00;;
15012;SDS011;7603;49.432;11.418;2023-07-16T03:33:15;3.00;;;2.80;;
15012;SDS011;7603;49.432;11.418;2023-07-16T03:35:42;4.18;;;3.80;;
15012;SDS011;7603;49.432;11.418;2023-07-16T03:38:09;8.35;;;2.90;;
15012;SDS011;7603;49.432;11.418;2023-07-16T03:40:35;3.28;;;2.92;;
15012;SDS011;7603;49.432;11.418;2023-07-16T03:43:01;3.40;;;3.20;;
15012;SDS011;7603;49.432;11.418;2023-07-16T03:45:26;3.40;;;3.20;;
15012;SDS011;7603;49.432;11.418;2023-07-16T03:47:52;3.35;;;3.05;;
15012;SDS011;7603;49.432;11.418;2023-07-16T03:50:17;5.00;;;3.47;;
15012;SDS011;7603;49.432;11.418;2023-07-16T03:52:43;3.20;;;3.00;;
15012;SDS011;7603;49.432;11.418;2023-07-16T03:55:09;2.30;;;2.20;;
15012;SDS011;7603;49.432;11.418;2023-07-16T03:57:35;2.38;;;2.28;;
15012;SDS011;7603;49.432;11.418;2023-07-16T04:00:01;2.40;;;2.30;;
15012;SDS011;7603;49.432;11.418;2023-07-16T04:02:35;2.50;;;2.30;;
15012;SDS011;7603;49.432;11.418;2023-07-16T04:05:01;2.42;;;2.20;;
15012;SDS011;7603;49.432;11.418;2023-07-16T04:07:27;2.50;;;2.40;;
15012;SDS011;7603;49.432;11.418;2023-07-16T04:09:52;2.30;;;2.20;;
15012;SDS011;7603;49.432;11.418;2023-07-16T04:12:18;1.58;;;1.50;;
15012;SDS011;7603;49.432;11.418;2023-07-16T04:14:45;1.98;;;1.88;;
15012;SDS011;7603;49.432;11.418;2023-07-16T04:17:11;2.05;;;1.80;;
15012;SDS011;7603;49.432;11.418;2023-07-16T04:19:37;1.95;;;1.85;;
15012;SDS011;7603;49.432;11.418;2023-07-16T04:22:03;2.17;;;2.05;;
15012;SDS011;7603;49.432;11.418;2023-07-16T04:24:29;2.03;;;1.88;;
15012;SDS011;7603;49.432;11.418;2023-07-16T04:26:55;1.92;;;1.83;;
15012;SDS011;7603;49.432;11.418;2023-07-16T04:29:21;2.17;;;2.08;;
15012;SDS011;7603;49.432;11.418;2023-07-16T04:31:47;2.00;;;1.90;;
15012;SDS011;7603;49.432;11.418;2023-07-16T04:34:12;2.78;;;2.10;;
15012;SDS011;7603;49.432;11.418;2023-07-16T04:36:38;2.30;;;2.10;;
15012;SDS011;7603;49.432;11.418;2023-07-16T04:39:04;2.30;;;2.05;;
15012;SDS011;7603;49.432;11.418;2023-07-16T04:41:30;1.83;;;1.73;;
15012;SDS011;7603;49.432;11.418;2023-07-16T04:43:56;1.90;;;1.80;;
15012;SDS011;7603;49.432;11.418;2023-07-16T04:46:21;1.90;;;1.80;;
15012;SDS011;7603;49.432;11.418;2023-07-16T04:48:47;2.10;;;2.00;;
15012;SDS011;7603;49.432;11.418;2023-07-16T04:51:13;2.25;;;1.80;;
15012;SDS011;7603;49.432;11.418;2023-07-16T04:53:38;2.35;;;1.92;;
15012;SDS011;7603;49.432;11.418;2023-07-16T04:56:04;2.45;;;1.88;;
15012;SDS011;7603;49.432;11.418;2023-07-16T04:58:35;2.15;;;1.98;;
15012;SDS011;7603;49.432;11.418;2023-07-16T05:01:00;1.83;;;1.73;;
15012;SDS011;7603;49.432;11.418;2023-07-16T05:03:26;2.20;;;2.10;;
15012;SDS011;7603;49.432;11.418;2023-07-16T05:05:52;1.92;;;1.83;;
15012;SDS011;7603;49.432;11.418;2023-07-16T05:08:17;2.00;;;1.90;;
15012;SDS011;7603;49.432;11.418;2023-07-16T05:10:43;2.25;;;2.15;;
15012;SDS011;7603;49.432;11.418;2023-07-16T05:13:08;2.80;;;2.60;;
15012;SDS011;7603;49.432;11.418;2023-07-16T05:15:34;2.95;;;2.28;;
15012;SDS011;7603;49.432;11.418;2023-07-16T05:17:59;2.63;;;2.42;;
15012;SDS011;7603;49.432;11.418;2023-07-16T05:20:25;3.13;;;2.03;;
15012;SDS011;7603;49.432;11.418;2023-07-16T05:22:51;2.30;;;2.10;;
15012;SDS011;7603;49.432;11.418;2023-07-16T05:25:16;2.55;;;2.20;;
15012;SDS011;7603;49.432;11.418;2023-07-16T05:27:42;2.72;;;2.03;;
15012;SDS011;7603;49.432;11.418;2023-07-16T05:30:07;2.95;;;2.10;;
15012;SDS011;7603;49.432;11.418;2023-07-16T05:32:33;1.80;;;1.70;;
15012;SDS011;7603;49.432;11.418;2023-07-16T05:34:59;2.65;;;1.80;;
15012;SDS011;7603;49.432;11.418;2023-07-16T05:37:25;2.47;;;2.20;;
15012;SDS011;7603;49.432;11.418;2023-07-16T05:39:51;1.90;;;1.80;;
15012;SDS011;7603;49.432;11.418;2023-07-16T05:42:17;3.38;;;2.25;;
15012;SDS011;7603;49.432;11.418;2023-07-16T05:44:42;3.28;;;2.47;;
15012;SDS011;7603;49.432;11.418;2023-07-16T05:47:09;2.45;;;2.10;;
15012;SDS011;7603;49.432;11.418;2023-07-16T05:49:35;4.55;;;2.60;;
15012;SDS011;7603;49.432;11.418;2023-07-16T05:52:00;2.25;;;2.10;;
15012;SDS011;7603;49.432;11.418;2023-07-16T05:54:26;2.33;;;2.13;;
15012;SDS011;7603;49.432;11.418;2023-07-16T05:56:52;3.22;;;2.13;;
15012;SDS011;7603;49.432;11.418;2023-07-16T05:59:18;2.20;;;2.00;;
15012;SDS011;7603;49.432;11.418;2023-07-16T06:01:43;4.28;;;2.22;;
15012;SDS011;7603;49.432;11.418;2023-07-16T06:04:09;3.30;;;2.25;;
15012;SDS011;7603;49.432;11.418;2023-07-16T06:06:35;4.47;;;2.05;;
15012;SDS011;7603;49.432;11.418;2023-07-16T06:09:00;4.20;;;2.00;;
15012;SDS011;7603;49.432;11.418;2023-07-16T06:11:26;3.65;;;1.80;;
15012;SDS011;7603;49.432;11.418;2023-07-16T06:13:54;2.00;;;1.90;;
15012;SDS011;7603;49.432;11.418;2023-07-16T06:16:20;4.25;;;2.25;;
15012;SDS011;7603;49.432;11.418;2023-07-16T06:18:46;3.60;;;2.00;;
15012;SDS011;7603;49.432;11.418;2023-07-16T06:21:11;7.28;;;2.17;;
15012;SDS011;7603;49.432;11.418;2023-07-16T06:23:38;1.85;;;1.75;;
15012;SDS011;7603;49.432;11.418;2023-07-16T06:26:05;2.53;;;1.73;;
15012;SDS011;7603;49.432;11.418;2023-07-16T06:28:31;2.95;;;2.05;;
15012;SDS011;7603;49.432;11.418;2023-07-16T06:30:57;3.13;;;2.22;;
15012;SDS011;7603;49.432;11.418;2023-07-16T06:33:22;2.42;;;2.20;;
15012;SDS011;7603;49.432;11.418;2023-07-16T06:35:48;3.72;;;2.20;;
15012;SDS011;7603;49.432;11.418;2023-07-16T06:38:14;2.83;;;2.22;;
15012;SDS011;7603;49.432;11.418;2023-07-16T06:40:45;2.65;;;2.08;;
15012;SDS011;7603;49.432;11.418;2023-07-16T06:43:12;3.35;;;1.88;;
15012;SDS011;7603;49.432;11.418;2023-07-16T06:45:38;2.47;;;1.70;;
15012;SDS011;7603;49.432;11.418;2023-07-16T06:48:04;3.97;;;1.80;;
15012;SDS011;7603;49.432;11.418;2023-07-16T06:50:30;3.75;;;2.25;;
15012;SDS011;7603;49.432;11.418;2023-07-16T06:52:55;4.75;;;1.95;;
15012;SDS011;7603;49.432;11.418;2023-07-16T06:55:21;2.17;;;1.60;;
15012;SDS011;7603;49.432;11.418;2023-07-16T06:57:46;2.22;;;2.03;;
15012;SDS011;7603;49.432;11.418;2023-07-16T07:00:12;3.58;;;2.20;;
15012;SDS011;7603;49.432;11.418;2023-07-16T07:02:38;3.05;;;2.38;;
15012;SDS011;7603;49.432;11.418;2023-07-16T07:05:03;4.68;;;2.10;;
15012;SDS011;7603;49.432;11.418;2023-07-16T07:07:29;4.30;;;2.03;;
15012;SDS011;7603;49.432;11.418;2023-07-16T07:09:55;3.80;;;2.10;;
15012;SDS011;7603;49.432;11.418;2023-07-16T07:12:21;2.90;;;1.80;;
15012;SDS011;7603;49.432;11.418;2023-07-16T07:14:46;3.50;;;2.30;;
15012;SDS011;7603;49.432;11.418;2023-07-16T07:17:13;2.63;;;2.22;;
15012;SDS011;7603;49.432;11.418;2023-07-16T07:19:39;2.33;;;2.00;;
15012;SDS011;7603;49.432;11.418;2023-07-16T07:22:04;1.92;;;1.80;;
15012;SDS011;7603;49.432;11.418;2023-07-16T07:24:30;3.47;;;2.10;;
15012;SDS011;7603;49.432;11.418;2023-07-16T07:26:56;3.38;;;1.85;;
15012;SDS011;7603;49.432;11.418;2023-07-16T07:29:21;2.50;;;2.20;;
15012;SDS011;7603;49.432;11.418;2023-07-16T07:31:47;3.13;;;1.92;;
15012;SDS011;7603;49.432;11.418;2023-07-16T07:34:13;4.22;;;1.90;;
15012;SDS011;7603;49.432;11.418;2023-07-16T07:36:38;3.78;;;2.13;;
15012;SDS011;7603;49.432;11.418;2023-07-16T07:39:04;2.05;;;1.95;;
15012;SDS011;7603;49.432;11.418;2023-07-16T07:41:30;4.05;;;1.90;;
15012;SDS011;7603;49.432;11.418;2023-07-16T07:43:56;3.50;;;2.17;;
15012;SDS011;7603;49.432;11.418;2023-07-16T07:46:22;3.33;;;1.90;;
15012;SDS011;7603;49.432;11.418;2023-07-16T07:48:47;5.28;;;2.30;;
15012;SDS011;7603;49.432;11.418;2023-07-16T07:51:13;3.05;;;2.00;;
15012;SDS011;7603;49.432;11.418;2023-07-16T07:53:39;3.05;;;2.25;;
15012;SDS011;7603;49.432;11.418;2023-07-16T07:56:04;3.05;;;2.67;;
15012;SDS011;7603;49.432;11.418;2023-07-16T07:58:30;4.07;;;2.50;;
15012;SDS011;7603;49.432;11.418;2023-07-16T08:00:56;4.70;;;2.03;;
15012;SDS011;7603;49.432;11.418;2023-07-16T08:03:21;3.55;;;2.20;;
15012;SDS011;7603;49.432;11.418;2023-07-16T08:05:50;3.25;;;2.15;;
15012;SDS011;7603;49.432;11.418;2023-07-16T08:08:15;3.42;;;2.20;;
15012;SDS011;7603;49.432;11.418;2023-07-16T08:10:42;3.35;;;2.42;;
15012;SDS011;7603;49.432;11.418;2023-07-16T08:13:07;2.13;;;1.95;;
15012;SDS011;7603;49.432;11.418;2023-07-16T08:15:33;2.65;;;2.10;;
15012;SDS011;7603;49.432;11.418;2023-07-16T08:17:59;3.33;;;2.33;;
15012;SDS011;7603;49.432;11.418;2023-07-16T08:20:25;5.18;;;2.28;;
15012;SDS011;7603;49.432;11.418;2023-07-16T08:22:51;4.90;;;2.50;;
15012;SDS011;7603;49.432;11.418;2023-07-16T08:25:17;2.08;;;1.98;;
15012;SDS011;7603;49.432;11.418;2023-07-16T08:27:42;5.15;;;2.53;;
15012;SDS011;7603;49.432;11.418;2023-07-16T08:30:09;5.00;;;2.75;;
15012;SDS011;7603;49.432;11.418;2023-07-16T08:32:34;4.05;;;2.40;;
15012;SDS011;7603;49.432;11.418;2023-07-16T08:35:00;4.78;;;2.33;;
15012;SDS011;7603;49.432;11.418;2023-07-16T08:37:25;3.22;;;2.33;;
15012;SDS011;7603;49.432;11.418;2023-07-16T08:39:52;4.47;;;2.00;;
15012;SDS011;7603;49.432;11.418;2023-07-16T08:42:22;4.10;;;2.30;;
15012;SDS011;7603;49.432;11.418;2023-07-16T08:44:48;4.18;;;2.65;;
15012;SDS011;7603;49.432;11.418;2023-07-16T08:47:17;3.28;;;2.17;;
15012;SDS011;7603;49.432;11.418;2023-07-16T08:49:48;4.50;;;2.25;;
15012;SDS011;7603;49.432;11.418;2023-07-16T08:52:18;2.75;;;2.10;;
15012;SDS011;7603;49.432;11.418;2023-07-16T08:54:44;4.93;;;2.20;;
15012;SDS011;7603;49.432;11.418;2023-07-16T08:57:10;4.10;;;2.28;;
15012;SDS011;7603;49.432;11.418;2023-07-16T08:59:37;5.20;;;2.53;;
15012;SDS011;7603;49.432;11.418;2023-07-16T09:02:02;3.03;;;2.10;;
15012;SDS011;7603;49.432;11.418;2023-07-16T09:04:28;4.38;;;2.40;;
15012;SDS011;7603;49.432;11.418;2023-07-16T09:06:55;6.32;;;2.70;;
15012;SDS011;7603;49.432;11.418;2023-07-16T09:09:24;2.33;;;2.08;;
15012;SDS011;7603;49.432;11.418;2023-07-16T09:11:50;3.85;;;2.10;;
15012;SDS011;7603;49.432;11.418;2023-07-16T09:14:16;7.07;;;2.40;;
15012;SDS011;7603;49.432;11.418;2023-07-16T09:16:49;4.03;;;2.40;;
15012;SDS011;7603;49.432;11.418;2023-07-16T09:19:15;3.13;;;2.30;;
15012;SDS011;7603;49.432;11.418;2023-07-16T09:21:45;4.68;;;2.13;;
15012;SDS011;7603;49.432;11.418;2023-07-16T09:24:11;4.63;;;2.63;;
15012;SDS011;7603;49.432;11.418;2023-07-16T09:26:37;2.65;;;1.92;;
15012;SDS011;7603;49.432;11.418;2023-07-16T09:29:09;3.58;;;2.00;;
15012;SDS011;7603;49.432;11.418;2023-07-16T09:31:35;4.93;;;2.20;;
15012;SDS011;7603;49.432;11.418;2023-07-16T09:34:01;5.78;;;2.60;;
15012;SDS011;7603;49.432;11.418;2023-07-16T09:36:26;2.67;;;2.35;;
15012;SDS011;7603;49.432;11.418;2023-07-16T09:38:55;4.97;;;2.17;;
15012;SDS011;7603;49.432;11.418;2023-07-16T09:41:24;5.93;;;2.42;;
15012;SDS011;7603;49.432;11.418;2023-07-16T09:43:49;3.40;;;2.25;;
15012;SDS011;7603;49.432;11.418;2023-07-16T09:46:15;5.45;;;2.60;;
15012;SDS011;7603;49.432;11.418;2023-07-16T09:48:41;4.10;;;2.33;;
15012;SDS011;7603;49.432;11.418;2023-07-16T09:51:07;3.55;;;2.65;;
15012;SDS011;7603;49.432;11.418;2023-07-16T09:53:37;2.78;;;2.00;;
15012;SDS011;7603;49.432;11.418;2023-07-16T09:56:06;5.40;;;2.15;;
15012;SDS011;7603;49.432;11.418;2023-07-16T09:58:35;5.20;;;2.20;;
15012;SDS011;7603;49.432;11.418;2023-07-16T10:01:01;7.68;;;2.83;;
15012;SDS011;7603;49.432;11.418;2023-07-16T10:03:28;3.08;;;2.53;;
15012;SDS011;7603;49.432;11.418;2023-07-16T10:05:54;6.10;;;2.47;;
15012;SDS011;7603;49.432;11.418;2023-07-16T10:08:33;7.15;;;2.63;;
15012;SDS011;7603;49.432;11.418;2023-07-16T10:11:02;4.13;;;2.30;;
15012;SDS011;7603;49.432;11.418;2023-07-16T10:13:28;2.85;;;1.77;;
15012;SDS011;7603;49.432;11.418;2023-07-16T10:15:57;3.33;;;2.20;;
15012;SDS011;7603;49.432;11.418;2023-07-16T10:18:24;3.55;;;2.50;;
15012;SDS011;7603;49.432;11.418;2023-07-16T10:21:01;4.78;;;2.60;;
15012;SDS011;7603;49.432;11.418;2023-07-16T10:23:40;4.35;;;2.38;;
15012;SDS011;7603;49.432;11.418;2023-07-16T10:26:07;3.85;;;2.15;;
15012;SDS011;7603;49.432;11.418;2023-07-16T10:28:35;2.90;;;2.45;;
15012;SDS011;7603;49.432;11.418;2023-07-16T10:31:02;3.65;;;2.63;;
15012;SDS011;7603;49.432;11.418;2023-07-16T10:33:28;3.28;;;2.47;;
15012;SDS011;7603;49.432;11.418;2023-07-16T10:35:55;4.13;;;2.47;;
15012;SDS011;7603;49.432;11.418;2023-07-16T10:38:25;3.80;;;2.38;;
15012;SDS011;7603;49.432;11.418;2023-07-16T10:41:05;5.75;;;2.28;;
15012;SDS011;7603;49.432;11.418;2023-07-16T10:43:30;4.05;;;2.47;;
15012;SDS011;7603;49.432;11.418;2023-07-16T10:45:56;4.28;;;2.35;;
15012;SDS011;7603;49.432;11.418;2023-07-16T10:48:24;3.67;;;2.50;;
15012;SDS011;7603;49.432;11.418;2023-07-16T10:50:52;3.33;;;2.08;;
15012;SDS011;7603;49.432;11.418;2023-07-16T10:53:19;3.15;;;2.30;;
15012;SDS011;7603;49.432;11.418;2023-07-16T10:55:45;5.88;;;2.47;;
15012;SDS011;7603;49.432;11.418;2023-07-16T10:58:10;3.70;;;2.25;;
15012;SDS011;7603;49.432;11.418;2023-07-16T11:00:37;4.53;;;2.25;;
15012;SDS011;7603;49.432;11.418;2023-07-16T11:03:04;2.38;;;2.15;;
15012;SDS011;7603;49.432;11.418;2023-07-16T11:05:29;2.72;;;2.30;;
15012;SDS011;7603;49.432;11.418;2023-07-16T11:07:55;3.55;;;2.17;;
15012;SDS011;7603;49.432;11.418;2023-07-16T11:10:21;2.55;;;2.35;;
15012;SDS011;7603;49.432;11.418;2023-07-16T11:12:51;2.95;;;2.25;;
15012;SDS011;7603;49.432;11.418;2023-07-16T11:15:32;5.15;;;2.33;;
15012;SDS011;7603;49.432;11.418;2023-07-16T11:17:59;2.85;;;2.00;;
15012;SDS011;7603;49.432;11.418;2023-07-16T11:20:25;2.63;;;2.33;;
15012;SDS011;7603;49.432;11.418;2023-07-16T11:22:51;2.30;;;1.65;;
15012;SDS011;7603;49.432;11.418;2023-07-16T11:25:17;8.38;;;2.00;;
15012;SDS011;7603;49.432;11.418;2023-07-16T11:27:43;2.10;;;1.73;;
15012;SDS011;7603;49.432;11.418;2023-07-16T11:30:09;2.30;;;2.10;;
15012;SDS011;7603;49.432;11.418;2023-07-16T11:32:35;3.28;;;1.90;;
15012;SDS011;7603;49.432;11.418;2023-07-16T11:35:10;3.15;;;1.85;;
15012;SDS011;7603;49.432;11.418;2023-07-16T11:37:41;2.85;;;2.60;;
15012;SDS011;7603;49.432;11.418;2023-07-16T11:40:09;4.85;;;2.40;;
15012;SDS011;7603;49.432;11.418;2023-07-16T11:42:37;2.20;;;2.03;;
15012;SDS011;7603;49.432;11.418;2023-07-16T11:45:04;2.30;;;2.08;;
15012;SDS011;7603;49.432;11.418;2023-07-16T11:47:39;3.97;;;2.17;;
15012;SDS011;7603;49.432;11.418;2023-07-16T11:50:05;4.30;;;2.60;;
15012;SDS011;7603;49.432;11.418;2023-07-16T11:52:31;2.00;;;1.80;;
15012;SDS011;7603;49.432;11.418;2023-07-16T11:54:57;2.10;;;2.00;;
15012;SDS011;7603;49.432;11.418;2023-07-16T11:57:28;2.20;;;2.00;;
15012;SDS011;7603;49.432;11.418;2023-07-16T11:59:54;2.65;;;2.45;;
15012;SDS011;7603;49.432;11.418;2023-07-16T12:02:20;4.15;;;2.50;;
15012;SDS011;7603;49.432;11.418;2023-07-16T12:04:46;4.45;;;2.50;;
15012;SDS011;7603;49.432;11.418;2023-07-16T12:07:12;2.42;;;2.10;;
15012;SDS011;7603;49.432;11.418;2023-07-16T12:09:38;2.47;;;2.17;;
15012;SDS011;7603;49.432;11.418;2023-07-16T12:12:03;4.20;;;2.50;;
15012;SDS011;7603;49.432;11.418;2023-07-16T12:14:30;2.33;;;1.92;;
15012;SDS011;7603;49.432;11.418;2023-07-16T12:16:56;2.42;;;2.08;;
15012;SDS011;7603;49.432;11.418;2023-07-16T12:19:21;4.07;;;2.17;;
15012;SDS011;7603;49.432;11.418;2023-07-16T12:21:47;4.43;;;2.38;;
15012;SDS011;7603;49.432;11.418;2023-07-16T12:24:13;4.13;;;2.30;;
15012;SDS011;7603;49.432;11.418;2023-07-16T12:26:38;2.40;;;2.20;;
15012;SDS011;7603;49.432;11.418;2023-07-16T12:29:04;4.30;;;2.28;;
15012;SDS011;7603;49.432;11.418;2023-07-16T12:31:30;3.88;;;2.40;;
15012;SDS011;7603;49.432;11.418;2023-07-16T12:33:57;3.05;;;1.92;;
15012;SDS011;7603;49.432;11.418;2023-07-16T12:36:23;1.98;;;1.88;;
15012;SDS011;7603;49.432;11.418;2023-07-16T12:38:48;3.03;;;2.20;;
15012;SDS011;7603;49.432;11.418;2023-07-16T12:41:14;3.70;;;2.45;;
15012;SDS011;7603;49.432;11.418;2023-07-16T12:43:42;3.00;;;1.92;;
15012;SDS011;7603;49.432;11.418;2023-07-16T12:46:08;2.95;;;1.98;;
15012;SDS011;7603;49.432;11.418;2023-07-16T12:48:34;2.17;;;2.05;;
15012;SDS011;7603;49.432;11.418;2023-07-16T12:51:00;2.53;;;1.98;;
15012;SDS011;7603;49.432;11.418;2023-07-16T12:53:25;2.95;;;1.92;;
15012;SDS011;7603;49.432;11.418;2023-07-16T12:55:51;2.25;;;2.00;;
15012;SDS011;7603;49.432;11.418;2023-07-16T12:58:17;2.42;;;2.22;;
15012;SDS011;7603;49.432;11.418;2023-07-16T13:00:44;5.43;;;2.55;;
15012;SDS011;7603;49.432;11.418;2023-07-16T13:03:09;2.13;;;1.88;;
15012;SDS011;7603;49.432;11.418;2023-07-16T13:05:39;2.35;;;2.15;;
15012;SDS011;7603;49.432;11.418;2023-07-16T13:08:05;2.53;;;2.33;;
15012;SDS011;7603;49.432;11.418;2023-07-16T13:10:31;1.77;;;1.67;;
15012;SDS011;7603;49.432;11.418;2023-07-16T13:12:57;2.00;;;1.80;;
15012;SDS011;7603;49.432;11.418;2023-07-16T13:15:23;2.35;;;2.15;;
15012;SDS011;7603;49.432;11.418;2023-07-16T13:17:49;2.95;;;2.58;;
15012;SDS011;7603;49.432;11.418;2023-07-16T13:20:14;3.08;;;2.30;;
15012;SDS011;7603;49.432;11.418;2023-07-16T13:22:40;2.83;;;2.00;;
15012;SDS011;7603;49.432;11.418;2023-07-16T13:25:06;2.50;;;2.30;;
15012;SDS011;7603;49.432;11.418;2023-07-16T13:27:33;2.25;;;2.05;;
15012;SDS011;7603;49.432;11.418;2023-07-16T13:29:59;5.43;;;1.95;;
15012;SDS011;7603;49.432;11.418;2023-07-16T13:32:25;2.97;;;1.70;;
15012;SDS011;7603;49.432;11.418;2023-07-16T13:34:50;2.85;;;2.30;;
15012;SDS011;7603;49.432;11.418;2023-07-16T13:37:16;2.10;;;1.90;;
15012;SDS011;7603;49.432;11.418;2023-07-16T13:39:41;3.47;;;1.80;;
15012;SDS011;7603;49.432;11.418;2023-07-16T13:42:07;3.95;;;1.70;;
15012;SDS011;7603;49.432;11.418;2023-07-16T13:44:33;1.85;;;1.75;;
15012;SDS011;7603;49.432;11.418;2023-07-16T13:46:58;2.08;;;1.88;;
15012;SDS011;7603;49.432;11.418;2023-07-16T13:49:24;1.88;;;1.77;;
15012;SDS011;7603;49.432;11.418;2023-07-16T13:51:50;2.15;;;1.95;;
15012;SDS011;7603;49.432;11.418;2023-07-16T13:54:15;2.67;;;2.33;;
15012;SDS011;7603;49.432;11.418;2023-07-16T13:56:41;5.07;;;1.98;;
15012;SDS011;7603;49.432;11.418;2023-07-16T13:59:07;2.97;;;2.10;;
15012;SDS011;7603;49.432;11.418;2023-07-16T14:01:32;2.20;;;1.73;;
15012;SDS011;7603;49.432;11.418;2023-07-16T14:04:02;1.73;;;1.63;;
15012;SDS011;7603;49.432;11.418;2023-07-16T14:06:28;3.30;;;2.08;;
15012;SDS011;7603;49.432;11.418;2023-07-16T14:08:54;2.70;;;1.85;;
15012;SDS011;7603;49.432;11.418;2023-07-16T14:11:20;3.55;;;1.92;;
15012;SDS011;7603;49.432;11.418;2023-07-16T14:13:46;3.30;;;1.58;;
15012;SDS011;7603;49.432;11.418;2023-07-16T14:16:16;1.98;;;1.80;;
15012;SDS011;7603;49.432;11.418;2023-07-16T14:18:51;1.73;;;1.58;;
15012;SDS011;7603;49.432;11.418;2023-07-16T14:21:19;1.73;;;1.63;;
15012;SDS011;7603;49.432;11.418;2023-07-16T14:23:45;2.15;;;1.90;;
15012;SDS011;7603;49.432;11.418;2023-07-16T14:26:10;3.10;;;1.90;;
15012;SDS011;7603;49.432;11.418;2023-07-16T14:28:37;2.13;;;1.92;;
15012;SDS011;7603;49.432;11.418;2023-07-16T14:31:05;1.58;;;1.48;;
15012;SDS011;7603;49.432;11.418;2023-07-16T14:33:31;1.75;;;1.65;;
15012;SDS011;7603;49.432;11.418;2023-07-16T14:35:57;2.33;;;1.63;;
15012;SDS011;7603;49.432;11.418;2023-07-16T14:38:23;1.88;;;1.77;;
15012;SDS011;7603;49.432;11.418;2023-07-16T14:40:49;2.30;;;1.27;;
15012;SDS011;7603;49.432;11.418;2023-07-16T14:43:16;1.40;;;1.30;;
15012;SDS011;7603;49.432;11.418;2023-07-16T14:45:43;1.60;;;1.50;;
15012;SDS011;7603;49.432;11.418;2023-07-16T14:48:08;1.42;;;1.30;;
15012;SDS011;7603;49.432;11.418;2023-07-16T14:50:34;3.10;;;1.85;;
15012;SDS011;7603;49.432;11.418;2023-07-16T14:53:00;2.35;;;1.55;;